Portada
METAR-TAF:

METAR-TAF

Aeropuertos :

Base aérea

Niederstetten, Alemania

latitud: 49-24N, longitud: 009-58E, altitud: 468 m

Observación

El informe se hizo hace 54 minutos, a las 06:20 UTC
Viento 3 kt del sur-sureste
Temperatura 11°C
Humedad 94%
Presión 1007 hPa
Visibilidad 10 km o más
Cielo nuboso a una altura de 5000 ft

METAR: ETHN 070620Z 16003KT 9999 BKN050 11/10 Q1007 BLU

Hora: 09:14 (07:14 UTC)


TAF: falta

Observaciones y pronósticos meteorológicos de más de 4000 aeropuertos (mensajes METAR y TAF).

Los puntos amarillos y rojos representan las estaciones disponibles.

Ponga el ratón en el punto deseado para ver el nombre de la estación.

Haga clic para ver las observaciones y los pronósticos meteorológicos.

Para cambiar el mapa : haga clic en los botones verdes con una cruz de color negro para hacer un zoom, en el botón verde con un guión para alejar o en las flechas verdes para mapas adyacentes.


METAR-TAF: